Time;durP1;ratioP1;P1;durP2;ratioP2;P2;SDS_P1;SDS_P2;PMS_P1;PMS_P2;Temp;Humidity;BMP_temperature;BMP_pressure;BME280_temperature;BME280_humidity;BME280_pressure;Samples;Min_cycle;Max_cycle;Signal;HPM_P1;HPM_P2
2021/12/27 00:00:09;;;;;;;5.05;3.53;;;11.00;61.50;;;;;;5031610;28;20181;-69
2021/12/27 00:02:37;;;;;;;4.97;3.50;;;;;;;;;;5031644;28;20137;-70
2021/12/27 00:05:04;;;;;;;6.03;3.90;;;11.20;61.70;;;;;;5031507;28;20077;-69
2021/12/27 00:07:31;;;;;;;5.70;3.95;;;11.50;56.20;;;;;;5032555;28;20140;-70
2021/12/27 00:09:57;;;;;;;5.47;3.90;;;11.20;61.40;;;;;;5032758;28;20046;-69
2021/12/27 00:12:24;;;;;;;6.60;4.28;;;11.10;61.30;;;;;;5032954;28;20470;-69
2021/12/27 00:14:51;;;;;;;6.63;4.13;;;10.40;55.70;;;;;;5033755;28;20049;-69
2021/12/27 00:17:19;;;;;;;5.80;3.70;;;11.00;61.00;;;;;;5032414;28;20071;-69
2021/12/27 00:19:46;;;;;;;6.10;4.15;;;11.10;61.00;;;;;;5032492;28;20144;-68
2021/12/27 00:22:13;;;;;;;5.78;3.90;;;10.40;60.80;;;;;;5031346;28;20132;-69
2021/12/27 00:24:40;;;;;;;5.45;3.88;;;11.10;61.70;;;;;;5047729;28;20053;-69
2021/12/27 00:27:07;;;;;;;6.53;4.28;;;;;;;;;;5031171;28;20152;-70
2021/12/27 00:29:34;;;;;;;5.63;3.90;;;11.20;61.40;;;;;;5032131;28;20088;-69
2021/12/27 00:32:01;;;;;;;5.32;4.03;;;;;;;;;;5032519;28;20171;-69
2021/12/27 00:34:29;;;;;;;5.82;3.92;;;11.00;61.50;;;;;;5031050;28;20050;-69
2021/12/27 00:36:56;;;;;;;5.40;4.00;;;11.00;61.30;;;;;;5031056;28;20499;-69
2021/12/27 00:39:22;;;;;;;5.30;3.90;;;11.00;61.40;;;;;;5032501;28;20129;-69
2021/12/27 00:41:49;;;;;;;5.85;3.85;;;;;;;;;;5032403;28;20409;-70
2021/12/27 00:44:16;;;;;;;5.32;3.60;;;11.00;61.20;;;;;;5032001;28;20132;-69
2021/12/27 00:46:43;;;;;;;5.53;4.03;;;11.10;61.50;;;;;;5030954;28;20136;-69
2021/12/27 00:49:10;;;;;;;6.28;4.38;;;;;;;;;;5033013;28;20136;-69
2021/12/27 00:51:38;;;;;;;6.18;4.00;;;10.90;61.50;;;;;;5032457;28;20133;-69
2021/12/27 00:54:05;;;;;;;4.75;3.83;;;11.00;61.30;;;;;;5032277;28;20144;-69
2021/12/27 00:56:33;;;;;;;5.63;3.75;;;;;;;;;;5031656;28;20049;-69
2021/12/27 00:59:00;;;;;;;6.35;4.30;;;11.10;58.80;;;;;;5030259;28;20076;-69
2021/12/27 01:01:27;;;;;;;6.78;4.30;;;11.00;61.20;;;;;;5030975;28;20562;-69
2021/12/27 01:03:53;;;;;;;5.68;4.03;;;11.00;61.30;;;;;;5030808;28;20132;-69
2021/12/27 01:06:20;;;;;;;6.53;4.10;;;11.30;59.40;;;;;;5031856;28;20063;-69
2021/12/27 01:08:48;;;;;;;6.15;4.45;;;11.00;61.30;;;;;;5030489;28;20137;-69
2021/12/27 01:11:25;;;;;;;5.07;3.90;;;11.00;61.40;;;;;;5031875;28;20555;-69
2021/12/27 01:14:03;;;;;;;6.15;3.85;;;;;;;;;;5030927;28;20383;-69
2021/12/27 01:16:29;;;;;;;6.30;4.43;;;11.40;61.70;;;;;;5030692;28;20057;-69
2021/12/27 01:18:57;;;;;;;6.07;4.53;;;;;;;;;;5031705;28;20537;-70
2021/12/27 01:21:24;;;;;;;6.65;4.15;;;11.10;61.40;;;;;;5030601;28;20152;-69
2021/12/27 01:23:52;;;;;;;5.80;4.30;;;11.10;48.80;;;;;;5032856;28;20045;-70
2021/12/27 01:26:19;;;;;;;5.68;4.07;;;11.40;61.30;;;;;;5031489;28;20045;-69
2021/12/27 01:28:46;;;;;;;6.50;3.95;;;11.20;61.10;;;;;;5030527;28;20168;-69
2021/12/27 01:31:13;;;;;;;7.47;4.35;;;;;;;;;;5030608;28;20522;-69
2021/12/27 01:33:40;;;;;;;4.90;3.78;;;11.20;61.10;;;;;;5030223;28;20046;-69
2021/12/27 01:36:10;;;;;;;5.20;3.97;;;11.20;58.00;;;;;;5030165;28;20061;-69
2021/12/27 01:38:39;;;;;;;6.32;3.92;;;;;;;;;;5032570;28;20046;-70
2021/12/27 01:41:08;;;;;;;5.30;3.83;;;11.20;56.50;;;;;;5035292;28;20118;-70
2021/12/27 01:43:35;;;;;;;6.72;3.88;;;;;;;;;;5051475;28;20081;-69
2021/12/27 01:46:03;;;;;;;6.03;3.97;;;11.30;61.20;;;;;;5050074;28;20127;-70
2021/12/27 01:48:32;;;;;;;6.05;3.95;;;11.30;61.20;;;;;;5050412;28;20143;-69
2021/12/27 01:50:59;;;;;;;7.57;4.10;;;;;;;;;;5051199;28;20045;-70
2021/12/27 01:53:27;;;;;;;5.40;3.70;;;11.30;54.10;;;;;;5050137;28;20394;-70
2021/12/27 01:55:54;;;;;;;5.82;4.00;;;11.40;61.10;;;;;;5049465;28;20051;-69
2021/12/27 01:58:23;;;;;;;4.80;3.85;;;11.40;48.10;;;;;;5051422;28;20133;-70
2021/12/27 02:00:50;;;;;;;4.53;3.50;;;11.10;51.40;;;;;;5049770;28;20131;-70
2021/12/27 02:03:18;;;;;;;6.00;4.28;;;;;;;;;;5051529;28;20406;-70
2021/12/27 02:05:45;;;;;;;5.00;3.80;;;11.50;61.00;;;;;;5049743;28;20500;-69
2021/12/27 02:08:12;;;;;;;5.65;3.45;;;;;;;;;;5050170;28;20586;-70
2021/12/27 02:10:39;;;;;;;5.95;4.28;;;11.50;60.70;;;;;;5051193;28;20052;-69
2021/12/27 02:13:06;;;;;;;5.93;4.10;;;11.50;52.60;;;;;;5052012;28;20044;-70
2021/12/27 02:15:34;;;;;;;5.22;4.03;;;11.50;60.90;;;;;;5054925;28;20044;-70
2021/12/27 02:18:00;;;;;;;5.05;3.58;;;11.60;60.60;;;;;;5053772;28;20052;-70
2021/12/27 02:20:30;;;;;;;6.28;4.00;;;11.50;60.80;;;;;;5054575;28;20131;-69
2021/12/27 02:23:00;;;;;;;6.28;3.72;;;11.70;60.90;;;;;;5053717;28;20144;-70
2021/12/27 02:25:27;;;;;;;5.35;3.80;;;11.50;60.80;;;;;;5053074;28;20045;-69
2021/12/27 02:27:54;;;;;;;5.78;3.63;;;;;;;;;;5053368;28;20417;-70
2021/12/27 02:30:22;;;;;;;5.93;4.35;;;11.20;60.40;;;;;;5052886;28;20127;-69
2021/12/27 02:32:50;;;;;;;4.75;3.60;;;11.40;60.40;;;;;;5053313;28;20081;-69
2021/12/27 02:35:18;;;;;;;5.88;3.95;;;11.60;60.20;;;;;;5053380;28;20569;-70
2021/12/27 02:37:46;;;;;;;6.45;4.05;;;11.60;60.00;;;;;;5054257;28;20402;-69
2021/12/27 02:40:13;;;;;;;6.40;4.20;;;11.60;60.60;;;;;;5054504;28;20049;-69
2021/12/27 02:42:59;;;;;;;6.45;3.90;;;11.50;60.50;;;;;;5054453;28;20055;-70
2021/12/27 02:45:25;;;;;;;4.85;3.63;;;11.70;60.80;;;;;;5053990;28;20131;-70
2021/12/27 02:47:53;;;;;;;5.70;3.90;;;;;;;;;;5052613;28;20132;-70
2021/12/27 02:50:19;;;;;;;5.72;3.70;;;11.50;60.60;;;;;;5054070;28;20140;-69
2021/12/27 02:52:48;;;;;;;6.25;4.15;;;11.60;48.00;;;;;;5053177;28;20461;-70
2021/12/27 02:55:15;;;;;;;4.72;3.40;;;;;;;;;;5053200;28;20047;-70
2021/12/27 02:57:42;;;;;;;5.22;3.95;;;11.70;60.40;;;;;;5053657;28;20049;-69
2021/12/27 03:00:15;;;;;;;5.38;4.05;;;11.80;60.20;;;;;;5053922;28;20091;-69
2021/12/27 03:02:43;;;;;;;5.63;4.00;;;11.80;60.70;;;;;;5053061;28;20056;-69
2021/12/27 03:05:10;;;;;;;7.70;4.00;;;11.60;60.50;;;;;;5051995;28;20404;-69
2021/12/27 03:07:37;;;;;;;5.75;4.03;;;;;;;;;;5052675;28;20135;-69
2021/12/27 03:10:06;;;;;;;5.22;3.88;;;11.50;60.50;;;;;;5052737;28;20056;-69
2021/12/27 03:12:33;;;;;;;6.05;3.90;;;;;;;;;;5052273;28;20149;-70
2021/12/27 03:15:00;;;;;;;5.95;3.90;;;11.30;60.40;;;;;;5053696;28;20059;-69
2021/12/27 03:17:27;;;;;;;6.38;4.28;;;11.70;60.30;;;;;;5051008;28;20568;-69
2021/12/27 03:19:53;;;;;;;6.85;4.28;;;11.80;52.00;;;;;;5033639;28;20132;-70
2021/12/27 03:22:23;;;;;;;5.13;3.90;;;11.80;60.30;;;;;;5033324;28;20076;-69
2021/12/27 03:24:50;;;;;;;6.07;4.13;;;11.80;60.60;;;;;;5032255;28;20056;-70
2021/12/27 03:27:18;;;;;;;6.15;3.83;;;10.50;48.20;;;;;;5033333;28;20136;-69
2021/12/27 03:29:45;;;;;;;5.63;3.70;;;11.80;60.40;;;;;;5033697;28;20471;-69
2021/12/27 03:32:12;;;;;;;6.03;4.28;;;;;;;;;;5038101;28;20132;-70
2021/12/27 03:34:42;;;;;;;5.80;4.10;;;11.70;60.20;;;;;;5053427;28;20049;-69
2021/12/27 03:37:10;;;;;;;7.28;4.65;;;11.70;60.30;;;;;;5051894;28;20106;-69
2021/12/27 03:39:36;;;;;;;6.80;4.30;;;11.70;60.20;;;;;;5051945;28;20128;-70
2021/12/27 03:42:04;;;;;;;5.75;3.90;;;11.80;60.30;;;;;;5053453;28;20048;-69
2021/12/27 03:44:32;;;;;;;5.47;4.13;;;11.80;60.30;;;;;;5053101;28;20048;-69
2021/12/27 03:46:58;;;;;;;6.68;3.97;;;11.90;60.50;;;;;;5052745;28;20470;-69
2021/12/27 03:49:25;;;;;;;4.93;3.72;;;11.80;60.50;;;;;;5051378;28;20127;-69
2021/12/27 03:51:52;;;;;;;5.82;4.05;;;;;;;;;;5053144;28;20132;-70
2021/12/27 03:54:19;;;;;;;6.50;4.72;;;11.80;60.60;;;;;;5051475;28;20128;-69
2021/12/27 03:56:46;;;;;;;5.80;4.03;;;11.90;60.60;;;;;;5052719;28;20131;-69
2021/12/27 03:59:22;;;;;;;5.95;4.15;;;;;;;;;;5051792;28;20080;-70
2021/12/27 04:01:50;;;;;;;6.13;4.43;;;11.80;52.30;;;;;;5051878;28;20107;-70
2021/12/27 04:04:16;;;;;;;6.30;4.20;;;11.80;52.00;;;;;;5052579;28;20048;-69
2021/12/27 04:06:45;;;;;;;6.07;4.15;;;11.90;60.20;;;;;;5039852;28;20128;-69
2021/12/27 04:09:11;;;;;;;5.50;3.95;;;11.70;60.50;;;;;;5048497;28;20140;-69
2021/12/27 04:11:39;;;;;;;5.72;3.97;;;;;;;;;;5052836;28;20124;-69
2021/12/27 04:14:05;;;;;;;5.30;3.78;;;11.80;60.20;;;;;;5051317;28;20132;-70
2021/12/27 04:16:32;;;;;;;5.68;4.13;;;11.90;60.60;;;;;;5052327;28;20124;-69
2021/12/27 04:19:00;;;;;;;5.30;4.00;;;12.00;48.10;;;;;;5052250;28;20051;-70
2021/12/27 04:21:27;;;;;;;7.03;4.18;;;;;;;;;;5051301;28;20143;-70
2021/12/27 04:23:54;;;;;;;5.47;4.05;;;11.80;60.50;;;;;;5039097;28;20049;-70
2021/12/27 04:26:22;;;;;;;5.82;4.32;;;11.80;57.10;;;;;;5030753;28;20054;-69
2021/12/27 04:28:49;;;;;;;4.75;3.65;;;11.80;51.70;;;;;;5032458;28;20076;-69
2021/12/27 04:31:16;;;;;;;5.03;3.55;;;11.80;60.20;;;;;;5032483;28;20137;-69
2021/12/27 04:33:43;;;;;;;5.18;3.88;;;11.80;60.20;;;;;;5031730;28;20145;-69
2021/12/27 04:36:11;;;;;;;5.30;3.92;;;11.80;52.00;;;;;;5032092;28;20136;-70
2021/12/27 04:38:38;;;;;;;5.57;4.00;;;11.80;60.00;;;;;;5031111;28;20057;-70
2021/12/27 04:41:05;;;;;;;6.03;4.13;;;11.80;60.40;;;;;;5033146;28;20501;-69
2021/12/27 04:43:31;;;;;;;6.20;4.28;;;11.70;50.70;;;;;;5032198;28;20582;-69
2021/12/27 04:45:58;;;;;;;6.47;4.40;;;11.80;60.10;;;;;;5031890;28;20405;-69
2021/12/27 04:48:25;;;;;;;6.50;4.28;;;11.40;60.30;;;;;;5031155;28;20132;-69
2021/12/27 04:50:52;;;;;;;5.85;3.97;;;11.80;57.90;;;;;;5031990;28;20136;-69
2021/12/27 04:53:21;;;;;;;6.10;4.30;;;12.10;54.70;;;;;;5032047;28;20145;-69
2021/12/27 04:55:48;;;;;;;5.85;4.03;;;12.00;53.60;;;;;;5030651;28;20561;-69
2021/12/27 04:58:17;;;;;;;5.57;4.22;;;11.90;60.20;;;;;;5033423;28;20052;-69
2021/12/27 05:00:43;;;;;;;5.55;4.35;;;11.40;60.10;;;;;;5031022;28;20510;-70
2021/12/27 05:03:10;;;;;;;5.95;3.92;;;11.50;59.30;;;;;;5030885;28;20577;-70
2021/12/27 05:05:41;;;;;;;5.75;4.00;;;12.10;60.30;;;;;;5030502;28;20060;-69
2021/12/27 05:08:07;;;;;;;5.65;4.05;;;12.00;60.20;;;;;;5030612;28;20100;-69
2021/12/27 05:10:36;;;;;;;6.53;4.20;;;11.60;52.80;;;;;;5030757;28;20059;-69
2021/12/27 05:13:02;;;;;;;5.57;4.18;;;12.00;58.80;;;;;;5034410;28;20159;-69
2021/12/27 05:15:29;;;;;;;5.43;4.10;;;12.00;60.40;;;;;;5051551;28;20135;-69
2021/12/27 05:17:56;;;;;;;7.03;4.22;;;11.90;60.40;;;;;;5050575;28;20139;-69
2021/12/27 05:20:22;;;;;;;5.68;4.30;;;11.40;54.10;;;;;;5050354;28;20065;-69
2021/12/27 05:22:49;;;;;;;5.80;4.00;;;11.80;59.80;;;;;;5051879;28;20139;-70
2021/12/27 05:25:16;;;;;;;4.63;3.60;;;11.90;60.50;;;;;;5050405;28;20048;-69
2021/12/27 05:27:45;;;;;;;5.75;4.25;;;12.00;60.10;;;;;;5051523;28;20053;-70
2021/12/27 05:30:12;;;;;;;5.68;3.97;;;12.00;60.20;;;;;;5049838;28;20099;-69
2021/12/27 05:32:40;;;;;;;5.65;4.03;;;11.40;52.90;;;;;;5050402;28;20077;-70
2021/12/27 05:35:08;;;;;;;6.35;4.50;;;11.80;55.30;;;;;;5051491;28;20056;-69
2021/12/27 05:37:35;;;;;;;7.05;4.07;;;;;;;;;;5051436;28;20622;-70
2021/12/27 05:40:05;;;;;;;5.82;4.18;;;11.50;60.20;;;;;;5051545;28;20231;-69
2021/12/27 05:42:32;;;;;;;7.00;4.35;;;11.90;60.50;;;;;;5051595;28;20080;-69
2021/12/27 05:45:00;;;;;;;6.13;4.30;;;12.00;60.30;;;;;;5052910;28;20059;-69
2021/12/27 05:47:27;;;;;;;5.05;3.80;;;12.00;60.50;;;;;;5044829;28;20574;-69
2021/12/27 05:49:53;;;;;;;7.28;4.45;;;11.70;60.10;;;;;;5035153;28;20602;-69
2021/12/27 05:52:20;;;;;;;6.38;4.30;;;12.00;60.30;;;;;;5034182;28;20137;-69
2021/12/27 05:54:47;;;;;;;6.43;4.22;;;;;;;;;;5035677;28;20059;-69
2021/12/27 05:57:14;;;;;;;6.65;4.47;;;11.40;59.90;;;;;;5035084;28;20049;-69
2021/12/27 05:59:41;;;;;;;5.57;4.00;;;12.00;60.50;;;;;;5035128;28;20568;-70
2021/12/27 06:02:09;;;;;;;6.28;4.38;;;13.50;50.30;;;;;;5035227;28;20136;-69
2021/12/27 06:04:36;;;;;;;5.35;3.95;;;;;;;;;;5036053;28;20128;-69
2021/12/27 06:07:03;;;;;;;5.75;4.32;;;12.00;60.30;;;;;;5033611;28;20057;-69
2021/12/27 06:09:30;;;;;;;5.93;4.15;;;;;;;;;;5033981;28;20151;-69
2021/12/27 06:11:57;;;;;;;5.95;4.28;;;11.90;60.30;;;;;;5033783;28;20053;-69
2021/12/27 06:14:24;;;;;;;5.53;4.15;;;11.80;54.10;;;;;;5035259;28;20128;-70
2021/12/27 06:16:51;;;;;;;6.30;4.13;;;12.00;60.50;;;;;;5034754;28;20132;-69
2021/12/27 06:19:20;;;;;;;5.95;4.15;;;12.00;60.20;;;;;;5034810;28;20053;-69
2021/12/27 06:21:47;;;;;;;6.63;4.15;;;12.00;60.50;;;;;;5035865;28;20053;-70
2021/12/27 06:24:14;;;;;;;5.15;4.00;;;;;;;;;;5034721;28;20553;-69
2021/12/27 06:26:41;;;;;;;6.22;4.45;;;11.80;60.30;;;;;;5033209;28;20505;-69
2021/12/27 06:29:08;;;;;;;6.38;4.50;;;12.00;60.50;;;;;;5033651;28;20060;-70
2021/12/27 06:31:34;;;;;;;6.10;4.20;;;12.30;58.20;;;;;;5033372;28;20132;-69
2021/12/27 06:34:01;;;;;;;6.18;4.40;;;11.60;60.10;;;;;;5034719;28;20148;-69
2021/12/27 06:36:29;;;;;;;7.82;4.68;;;12.00;60.50;;;;;;5034285;28;20045;-69
2021/12/27 06:38:56;;;;;;;5.15;3.90;;;12.10;60.60;;;;;;5033188;28;20049;-69
2021/12/27 06:41:24;;;;;;;5.50;4.10;;;12.00;57.60;;;;;;5033321;28;20136;-69
2021/12/27 06:43:51;;;;;;;5.85;3.90;;;12.10;60.40;;;;;;5033440;28;20053;-70
2021/12/27 06:46:18;;;;;;;6.10;4.53;;;;;;;;;;5033978;28;20136;-70
2021/12/27 06:48:45;;;;;;;6.07;4.20;;;;;;;;;;5048074;28;20136;-70
2021/12/27 06:51:12;;;;;;;5.95;4.10;;;11.80;60.10;;;;;;5053953;28;20055;-70
2021/12/27 06:53:40;;;;;;;6.63;4.50;;;12.00;48.20;;;;;;5053986;28;20128;-69
2021/12/27 06:56:07;;;;;;;6.15;4.18;;;;;;;;;;5051847;28;20049;-68
2021/12/27 06:58:34;;;;;;;5.85;3.97;;;12.00;60.40;;;;;;5052905;28;20055;-70
2021/12/27 07:01:01;;;;;;;5.55;4.20;;;;;;;;;;5052286;28;20057;-70
2021/12/27 07:03:27;;;;;;;5.35;4.15;;;12.00;60.10;;;;;;5053784;28;20053;-69
2021/12/27 07:05:54;;;;;;;5.60;3.97;;;12.00;60.20;;;;;;5034592;28;20060;-69
2021/12/27 07:08:22;;;;;;;6.90;4.40;;;;;;;;;;5033792;28;20491;-68
2021/12/27 07:10:50;;;;;;;6.60;4.47;;;12.00;48.20;;;;;;5033852;28;20049;-68
2021/12/27 07:13:17;;;;;;;5.40;4.03;;;;;;;;;;5033971;28;20053;-69
2021/12/27 07:15:45;;;;;;;6.13;4.20;;;11.70;59.90;;;;;;5032825;28;20585;-70
2021/12/27 07:18:11;;;;;;;6.03;4.35;;;12.20;48.60;;;;;;5033601;28;20052;-70
2021/12/27 07:20:38;;;;;;;6.25;4.40;;;12.10;60.10;;;;;;5040407;28;20128;-71
2021/12/27 07:23:05;;;;;;;5.80;4.53;;;;;;;;;;5034858;28;20501;-74
2021/12/27 07:25:32;;;;;;;5.80;4.10;;;11.70;60.10;;;;;;5032124;28;20132;-74
2021/12/27 07:28:01;;;;;;;7.25;4.50;;;12.10;48.30;;;;;;5032610;28;20088;-75
2021/12/27 07:30:29;;;;;;;9.38;4.88;;;;;;;;;;5032236;28;20140;-74
2021/12/27 07:32:56;;;;;;;7.35;4.38;;;;;;;;;;5032338;28;20061;-74
2021/12/27 07:35:23;;;;;;;7.72;4.43;;;12.30;60.10;;;;;;5032266;28;20141;-74
2021/12/27 07:37:50;;;;;;;6.53;4.15;;;;;;;;;;5032318;28;20136;-74
2021/12/27 07:40:17;;;;;;;6.35;4.55;;;12.40;60.40;;;;;;5033377;28;20140;-74
2021/12/27 07:42:44;;;;;;;8.27;4.05;;;;;;;;;;5032240;28;20149;-75
2021/12/27 07:45:12;;;;;;;8.10;4.20;;;12.60;60.00;;;;;;5032039;28;20140;-75
2021/12/27 07:47:39;;;;;;;6.10;3.97;;;12.60;60.20;;;;;;5031590;28;20044;-74
2021/12/27 07:50:06;;;;;;;7.53;4.25;;;12.50;59.80;;;;;;5031877;28;20734;-74
2021/12/27 07:52:34;;;;;;;6.65;3.85;;;;;;;;;;5049919;28;20132;-74
2021/12/27 07:55:00;;;;;;;8.48;4.40;;;11.90;48.60;;;;;;5050865;28;20081;-74
2021/12/27 07:57:27;;;;;;;5.22;3.70;;;;;;;;;;5051285;28;20070;-74
2021/12/27 07:59:55;;;;;;;6.85;3.90;;;;;;;;;;5051007;28;20147;-74
2021/12/27 08:02:23;;;;;;;7.60;4.65;;;12.60;47.90;;;;;;5049336;28;20131;-74
2021/12/27 08:04:50;;;;;;;4.97;3.85;;;;;;;;;;5048905;28;20514;-74
2021/12/27 08:07:17;;;;;;;6.82;4.20;;;;;;;;;;5050097;28;20421;-74
2021/12/27 08:09:44;;;;;;;5.95;4.13;;;;;;;;;;5050162;28;20144;-71
2021/12/27 08:12:12;;;;;;;6.07;3.92;;;12.20;48.70;;;;;;5051193;28;20059;-73
2021/12/27 08:14:39;;;;;;;6.97;3.70;;;12.80;50.00;;;;;;5051454;28;20056;-75
2021/12/27 08:17:06;;;;;;;6.90;4.03;;;12.00;59.30;;;;;;5051344;28;20060;-76
2021/12/27 08:19:34;;;;;;;7.60;3.80;;;12.90;57.30;;;;;;5033032;28;20132;-74
2021/12/27 08:22:01;;;;;;;8.63;4.22;;;12.40;56.40;;;;;;5037029;28;20217;-74
2021/12/27 08:24:28;;;;;;;6.13;4.10;;;12.70;59.70;;;;;;5068794;28;20457;-73
2021/12/27 08:26:55;;;;;;;5.03;3.67;;;;;;;;;;5070641;28;20708;-73
2021/12/27 08:29:22;;;;;;;5.95;3.92;;;13.00;60.10;;;;;;5053380;28;20466;-73
2021/12/27 08:31:48;;;;;;;6.47;4.10;;;12.70;60.00;;;;;;5050967;28;20139;-73
2021/12/27 08:34:15;;;;;;;6.07;4.22;;;;;;;;;;5048148;28;20057;-74
2021/12/27 08:36:44;;;;;;;5.40;3.97;;;12.90;47.90;;;;;;5038995;28;20124;-73
2021/12/27 08:39:10;;;;;;;7.03;4.28;;;12.90;59.90;;;;;;5051077;28;20085;-73
2021/12/27 08:41:37;;;;;;;7.00;4.18;;;;;;;;;;5051109;28;20446;-73
2021/12/27 08:44:05;;;;;;;5.70;4.10;;;12.90;59.60;;;;;;5050757;28;20123;-74
2021/12/27 08:46:32;;;;;;;5.82;4.18;;;;;;;;;;5050316;28;20045;-73
2021/12/27 08:48:59;;;;;;;5.45;4.03;;;;;;;;;;5050956;28;20140;-73
2021/12/27 08:51:26;;;;;;;5.43;3.97;;;;;;;;;;5048928;28;20477;-73
2021/12/27 08:53:54;;;;;;;7.85;4.13;;;12.90;59.50;;;;;;5053268;28;20131;-73
2021/12/27 08:56:21;;;;;;;7.45;3.85;;;12.80;59.40;;;;;;5070845;28;20131;-73
2021/12/27 08:58:48;;;;;;;5.65;4.30;;;;;;;;;;5058734;28;20095;-74
2021/12/27 09:01:15;;;;;;;6.28;4.00;;;12.50;59.40;;;;;;5050770;28;20549;-73
2021/12/27 09:03:42;;;;;;;8.02;4.05;;;;;;;;;;5050806;28;20144;-73
2021/12/27 09:06:09;;;;;;;5.40;3.92;;;12.70;59.20;;;;;;5050493;28;20573;-73
2021/12/27 09:08:36;;;;;;;7.40;4.35;;;12.90;58.00;;;;;;5049118;28;20052;-72
2021/12/27 09:11:04;;;;;;;5.40;4.03;;;13.00;47.70;;;;;;5037865;28;20091;-74
2021/12/27 09:13:31;;;;;;;6.47;4.43;;;14.00;59.90;;;;;;5050110;28;20144;-73
2021/12/27 09:16:01;;;;;;;6.47;3.90;;;12.90;59.50;;;;;;5050347;28;20142;-73
2021/12/27 09:18:27;;;;;;;7.80;4.30;;;12.40;59.20;;;;;;5050558;28;20498;-73
2021/12/27 09:20:54;;;;;;;5.00;3.90;;;13.10;59.30;;;;;;5053998;28;20135;-73
2021/12/27 09:23:21;;;;;;;5.25;3.88;;;;;;;;;;5054371;28;20084;-73
2021/12/27 09:25:48;;;;;;;5.15;3.88;;;;;;;;;;5051216;28;20135;-73
2021/12/27 09:28:16;;;;;;;6.50;3.80;;;13.90;59.40;;;;;;5054023;28;20486;-73
2021/12/27 09:30:43;;;;;;;5.70;3.70;;;12.90;58.50;;;;;;5054072;28;20549;-73
2021/12/27 09:33:10;;;;;;;5.55;4.07;;;;;;;;;;5054133;28;20091;-73
2021/12/27 09:35:37;;;;;;;5.90;4.32;;;12.50;51.30;;;;;;5053975;28;20136;-73
2021/12/27 09:38:04;;;;;;;5.82;3.83;;;;;;;;;;5052232;28;20077;-73
2021/12/27 09:40:31;;;;;;;7.00;4.30;;;;;;;;;;5063811;28;20080;-73
2021/12/27 09:42:58;;;;;;;5.75;4.28;;;;;;;;;;5065421;28;20045;-72
2021/12/27 09:45:26;;;;;;;8.73;4.18;;;13.20;49.90;;;;;;5042008;28;20136;-73
2021/12/27 09:47:53;;;;;;;5.45;3.58;;;;;;;;;;5034075;28;20459;-73
2021/12/27 09:50:22;;;;;;;5.47;3.75;;;13.20;59.20;;;;;;5034144;28;20132;-73
2021/12/27 09:52:49;;;;;;;5.43;3.70;;;12.60;58.90;;;;;;5034075;28;20088;-72
2021/12/27 09:55:16;;;;;;;6.57;4.28;;;13.20;58.80;;;;;;5052983;28;20147;-73
2021/12/27 09:57:43;;;;;;;6.20;4.45;;;;;;;;;;5054030;28;20639;-73
2021/12/27 10:00:11;;;;;;;6.28;4.05;;;13.30;59.40;;;;;;5052726;28;20045;-73
2021/12/27 10:02:39;;;;;;;5.50;3.88;;;13.10;47.60;;;;;;5054099;28;20139;-73
2021/12/27 10:05:06;;;;;;;5.97;3.92;;;13.10;57.40;;;;;;5053879;28;20139;-72
2021/12/27 10:07:33;;;;;;;6.55;4.15;;;;;;;;;;5053364;28;20140;-72
2021/12/27 10:10:00;;;;;;;6.45;4.00;;;;;;;;;;5053641;28;20132;-73
2021/12/27 10:12:28;;;;;;;6.03;3.92;;;;;;;;;;5053799;28;20081;-73
2021/12/27 10:14:56;;;;;;;5.57;3.80;;;14.00;59.40;;;;;;5053935;28;20470;-73
2021/12/27 10:17:23;;;;;;;5.75;4.32;;;12.70;59.00;;;;;;5043304;28;20053;-73
2021/12/27 10:19:51;;;;;;;5.75;3.63;;;13.20;47.60;;;;;;5034723;28;20049;-73
2021/12/27 10:22:18;;;;;;;6.38;4.20;;;;;;;;;;5033757;28;20136;-72
2021/12/27 10:24:45;;;;;;;6.22;4.35;;;13.30;59.10;;;;;;5033778;28;20529;-73
2021/12/27 10:27:12;;;;;;;5.65;3.85;;;13.20;59.00;;;;;;5033572;28;20051;-73
2021/12/27 10:29:39;;;;;;;6.38;4.40;;;13.20;53.60;;;;;;5067987;28;20128;-73
2021/12/27 10:32:09;;;;;;;6.97;4.38;;;;;;;;;;5051955;28;20132;-72
2021/12/27 10:34:36;;;;;;;6.10;4.40;;;;;;;;;;5041932;28;20053;-73
2021/12/27 10:37:08;;;;;;;5.32;3.95;;;13.30;59.20;;;;;;5033325;28;20137;-73
2021/12/27 10:39:52;;;;;;;6.90;4.00;;;14.30;59.00;;;;;;5033009;28;20128;-73
2021/12/27 10:42:20;;;;;;;6.32;4.10;;;13.20;51.00;;;;;;5033153;28;20128;-72
2021/12/27 10:44:48;;;;;;;6.60;4.15;;;12.90;54.70;;;;;;5033201;28;20140;-72
2021/12/27 10:47:45;;;;;;;6.63;4.43;;;12.40;58.80;;;;;;5032914;28;20049;-72
2021/12/27 10:50:15;;;;;;;6.65;4.55;;;13.20;47.90;;;;;;4987301;28;20494;-72
2021/12/27 10:53:02;;;;;;;6.18;4.40;;;13.20;47.90;;;;;;5024093;28;20136;-72
2021/12/27 10:55:31;;;;;;;9.35;4.80;;;12.80;59.40;;;;;;5041913;28;20140;-72
2021/12/27 10:58:18;;;;;;;8.35;4.82;;;13.10;59.60;;;;;;5052825;28;20064;-72
2021/12/27 11:00:46;;;;;;;7.70;4.43;;;13.50;60.00;;;;;;5052927;28;20067;-72
2021/12/27 11:03:29;;;;;;;8.77;4.50;;;13.20;59.50;;;;;;5052947;28;20138;-72
2021/12/27 11:05:56;;;;;;;7.72;4.20;;;;;;;;;;5052320;28;20132;-72
2021/12/27 11:08:26;;;;;;;6.90;4.60;;;13.20;48.00;;;;;;5052425;28;20133;-72
2021/12/27 11:10:53;;;;;;;6.97;4.43;;;;;;;;;;5052673;28;20057;-72
2021/12/27 11:13:20;;;;;;;8.00;4.30;;;12.30;57.70;;;;;;5052755;28;20135;-72
2021/12/27 11:15:46;;;;;;;6.38;3.92;;;13.30;59.60;;;;;;5052377;28;20132;-72
2021/12/27 11:18:15;;;;;;;5.95;4.03;;;;;;;;;;5052452;28;20577;-72
2021/12/27 11:20:44;;;;;;;8.32;4.45;;;13.30;52.20;;;;;;5052585;28;20057;-73
2021/12/27 11:23:11;;;;;;;8.18;4.60;;;12.40;59.00;;;;;;5052426;28;20244;-72
2021/12/27 11:25:40;;;;;;;6.20;4.30;;;13.20;51.30;;;;;;5052061;28;20124;-71
2021/12/27 11:28:09;;;;;;;7.38;4.50;;;12.50;59.00;;;;;;5052051;28;20053;-72
2021/12/27 11:30:36;;;;;;;8.13;4.60;;;;;;;;;;5050045;28;20140;-73
2021/12/27 11:33:06;;;;;;;6.32;4.18;;;13.30;59.80;;;;;;5050382;28;20136;-72
2021/12/27 11:35:34;;;;;;;9.25;4.70;;;13.20;48.00;;;;;;5050501;28;20150;-72
2021/12/27 11:38:01;;;;;;;8.68;4.93;;;12.30;58.90;;;;;;5052032;28;20142;-70
2021/12/27 11:40:41;;;;;;;6.65;4.30;;;13.20;48.00;;;;;;5053441;28;20060;-70
2021/12/27 11:43:08;;;;;;;8.13;4.72;;;;;;;;;;5040558;28;20538;-71
2021/12/27 11:45:40;;;;;;;7.20;4.40;;;13.20;59.70;;;;;;5051717;28;20136;-69
2021/12/27 11:48:08;;;;;;;7.45;4.15;;;14.20;60.20;;;;;;5053312;28;20128;-71
2021/12/27 11:50:43;;;;;;;8.45;4.45;;;12.50;56.00;;;;;;5051710;28;20405;-69
2021/12/27 11:53:09;;;;;;;8.38;4.68;;;13.10;59.60;;;;;;5051207;28;20057;-69
2021/12/27 11:55:40;;;;;;;9.48;4.70;;;13.20;48.10;;;;;;5038506;28;20750;-69
2021/12/27 11:58:07;;;;;;;9.98;4.97;;;12.50;59.30;;;;;;5033025;28;20132;-69
2021/12/27 12:00:38;;;;;;;9.40;4.80;;;13.30;59.40;;;;;;5033238;28;20128;-69
2021/12/27 12:03:16;;;;;;;8.45;4.80;;;14.00;56.50;;;;;;5033228;28;20075;-69
2021/12/27 12:05:43;;;;;;;8.48;4.68;;;;;;;;;;5032730;28;20096;-69
2021/12/27 12:08:11;;;;;;;7.68;4.47;;;12.80;55.40;;;;;;5035879;28;20099;-70
2021/12/27 12:10:38;;;;;;;7.70;4.82;;;13.20;59.70;;;;;;5050905;28;20059;-70
2021/12/27 12:13:23;;;;;;;8.20;4.32;;;13.20;59.80;;;;;;5052963;28;20053;-70
2021/12/27 12:16:11;;;;;;;8.30;4.68;;;13.20;59.90;;;;;;5051470;28;20085;-70
2021/12/27 12:18:41;;;;;;;7.93;4.65;;;13.30;59.70;;;;;;5034764;28;20095;-70
2021/12/27 12:21:08;;;;;;;9.15;4.55;;;13.50;55.10;;;;;;5042012;28;20048;-70
2021/12/27 12:23:37;;;;;;;9.93;5.47;;;13.10;59.90;;;;;;5038627;28;20128;-70
2021/12/27 12:26:05;;;;;;;8.88;4.80;;;13.20;59.90;;;;;;5052159;28;20132;-71
2021/12/27 12:28:33;;;;;;;10.55;4.78;;;13.20;58.60;;;;;;5040717;28;20152;-72
2021/12/27 12:31:00;;;;;;;7.90;4.80;;;13.30;57.90;;;;;;5044246;28;20109;-71
2021/12/27 12:33:27;;;;;;;7.97;4.75;;;13.10;48.40;;;;;;5052619;28;20053;-70
2021/12/27 12:35:56;;;;;;;9.10;4.72;;;12.50;59.60;;;;;;5051960;28;20127;-70
2021/12/27 12:38:24;;;;;;;7.15;4.43;;;13.80;60.40;;;;;;5052098;28;20122;-70
2021/12/27 12:41:03;;;;;;;10.25;5.07;;;12.60;59.70;;;;;;5050759;28;20480;-70
2021/12/27 12:43:39;;;;;;;7.75;3.97;;;13.10;48.40;;;;;;5050349;28;20095;-70
2021/12/27 12:46:14;;;;;;;7.32;4.32;;;13.20;59.60;;;;;;5050901;28;20060;-70
2021/12/27 12:48:41;;;;;;;9.82;5.20;;;12.90;59.70;;;;;;5052172;28;20056;-70
2021/12/27 12:51:07;;;;;;;9.48;5.28;;;13.10;59.80;;;;;;5050751;28;20061;-70
2021/12/27 12:53:34;;;;;;;9.35;4.68;;;14.10;55.00;;;;;;5052055;28;20128;-70
2021/12/27 12:56:01;;;;;;;10.63;5.00;;;13.00;59.80;;;;;;5050404;28;20057;-72
2021/12/27 12:58:33;;;;;;;9.15;4.88;;;13.10;48.50;;;;;;5048254;28;20140;-70
2021/12/27 13:01:05;;;;;;;9.07;4.70;;;13.10;48.90;;;;;;5048531;28;20132;-71
2021/12/27 13:03:31;;;;;;;8.15;4.78;;;13.10;59.90;;;;;;5050812;28;20151;-70
2021/12/27 13:05:59;;;;;;;9.07;4.85;;;;;;;;;;5050624;28;20084;-71
2021/12/27 13:08:25;;;;;;;9.35;4.85;;;13.30;60.10;;;;;;5050436;28;20055;-71
2021/12/27 13:10:55;;;;;;;8.07;4.70;;;13.20;48.60;;;;;;5050766;28;20131;-71
2021/12/27 13:13:22;;;;;;;9.30;4.72;;;13.00;60.00;;;;;;5050557;28;20705;-71